sensor_id;sensor_type;location;lat;lon;timestamp;P1;durP1;ratioP1;P2;durP2;ratioP2
23175;SDS011;19910;42.652;23.332;2022-09-09T00:01:49;9.90;;;7.35;;
23175;SDS011;19910;42.652;23.332;2022-09-09T00:04:24;9.77;;;6.82;;
23175;SDS011;19910;42.652;23.332;2022-09-09T00:07:00;10.13;;;7.35;;
23175;SDS011;19910;42.652;23.332;2022-09-09T00:09:31;10.70;;;6.95;;
23175;SDS011;19910;42.652;23.332;2022-09-09T00:12:04;12.82;;;6.18;;
23175;SDS011;19910;42.652;23.332;2022-09-09T00:14:37;13.57;;;7.20;;
23175;SDS011;19910;42.652;23.332;2022-09-09T00:17:12;8.13;;;6.15;;
23175;SDS011;19910;42.652;23.332;2022-09-09T00:19:44;8.82;;;6.28;;
23175;SDS011;19910;42.652;23.332;2022-09-09T00:22:17;16.17;;;6.78;;
23175;SDS011;19910;42.652;23.332;2022-09-09T00:24:46;11.73;;;6.18;;
23175;SDS011;19910;42.652;23.332;2022-09-09T00:27:25;8.98;;;6.60;;
23175;SDS011;19910;42.652;23.332;2022-09-09T00:30:00;12.05;;;7.85;;
23175;SDS011;19910;42.652;23.332;2022-09-09T00:32:39;12.55;;;6.88;;
23175;SDS011;19910;42.652;23.332;2022-09-09T00:35:12;10.20;;;7.32;;
23175;SDS011;19910;42.652;23.332;2022-09-09T00:37:44;11.27;;;7.13;;
23175;SDS011;19910;42.652;23.332;2022-09-09T00:40:17;9.82;;;6.95;;
23175;SDS011;19910;42.652;23.332;2022-09-09T00:42:48;9.95;;;7.18;;
23175;SDS011;19910;42.652;23.332;2022-09-09T00:45:28;10.80;;;7.78;;
23175;SDS011;19910;42.652;23.332;2022-09-09T00:48:07;11.75;;;7.95;;
23175;SDS011;19910;42.652;23.332;2022-09-09T00:50:39;11.85;;;7.88;;
23175;SDS011;19910;42.652;23.332;2022-09-09T00:53:30;9.68;;;7.03;;
23175;SDS011;19910;42.652;23.332;2022-09-09T00:56:06;11.48;;;6.70;;
23175;SDS011;19910;42.652;23.332;2022-09-09T00:58:39;8.40;;;7.38;;
23175;SDS011;19910;42.652;23.332;2022-09-09T01:01:09;9.63;;;7.00;;
23175;SDS011;19910;42.652;23.332;2022-09-09T01:03:39;9.35;;;6.25;;
23175;SDS011;19910;42.652;23.332;2022-09-09T01:06:14;11.25;;;7.00;;
23175;SDS011;19910;42.652;23.332;2022-09-09T01:08:52;10.93;;;7.28;;
23175;SDS011;19910;42.652;23.332;2022-09-09T01:11:43;9.52;;;6.38;;
23175;SDS011;19910;42.652;23.332;2022-09-09T01:14:24;10.52;;;7.40;;
23175;SDS011;19910;42.652;23.332;2022-09-09T01:17:03;9.73;;;6.82;;
23175;SDS011;19910;42.652;23.332;2022-09-09T01:19:43;12.18;;;6.55;;
23175;SDS011;19910;42.652;23.332;2022-09-09T01:22:19;9.75;;;6.20;;
23175;SDS011;19910;42.652;23.332;2022-09-09T01:25:01;8.35;;;6.22;;
23175;SDS011;19910;42.652;23.332;2022-09-09T01:27:42;9.98;;;6.70;;
23175;SDS011;19910;42.652;23.332;2022-09-09T01:30:11;10.20;;;6.88;;
23175;SDS011;19910;42.652;23.332;2022-09-09T01:32:41;11.18;;;6.68;;
23175;SDS011;19910;42.652;23.332;2022-09-09T01:35:11;11.70;;;7.32;;
23175;SDS011;19910;42.652;23.332;2022-09-09T01:37:41;10.52;;;6.65;;
23175;SDS011;19910;42.652;23.332;2022-09-09T01:40:08;9.23;;;6.85;;
23175;SDS011;19910;42.652;23.332;2022-09-09T01:42:35;9.52;;;6.68;;
23175;SDS011;19910;42.652;23.332;2022-09-09T01:45:04;9.95;;;6.47;;
23175;SDS011;19910;42.652;23.332;2022-09-09T01:47:32;10.82;;;7.00;;
23175;SDS011;19910;42.652;23.332;2022-09-09T01:49:59;8.80;;;6.70;;
23175;SDS011;19910;42.652;23.332;2022-09-09T01:52:28;8.63;;;6.53;;
23175;SDS011;19910;42.652;23.332;2022-09-09T01:54:56;9.10;;;6.60;;
23175;SDS011;19910;42.652;23.332;2022-09-09T01:57:23;9.45;;;7.07;;
23175;SDS011;19910;42.652;23.332;2022-09-09T01:59:58;12.40;;;7.35;;
23175;SDS011;19910;42.652;23.332;2022-09-09T02:02:35;12.85;;;6.97;;
23175;SDS011;19910;42.652;23.332;2022-09-09T02:05:09;9.63;;;7.55;;
23175;SDS011;19910;42.652;23.332;2022-09-09T02:07:45;16.80;;;7.65;;
23175;SDS011;19910;42.652;23.332;2022-09-09T02:10:19;11.73;;;6.22;;
23175;SDS011;19910;42.652;23.332;2022-09-09T02:12:49;12.15;;;7.07;;
23175;SDS011;19910;42.652;23.332;2022-09-09T02:15:22;9.52;;;6.82;;
23175;SDS011;19910;42.652;23.332;2022-09-09T02:17:58;10.40;;;6.63;;
23175;SDS011;19910;42.652;23.332;2022-09-09T02:20:27;9.75;;;7.07;;
23175;SDS011;19910;42.652;23.332;2022-09-09T02:22:58;14.05;;;7.25;;
23175;SDS011;19910;42.652;23.332;2022-09-09T02:25:26;13.88;;;6.97;;
23175;SDS011;19910;42.652;23.332;2022-09-09T02:27:55;10.20;;;7.57;;
23175;SDS011;19910;42.652;23.332;2022-09-09T02:30:24;7.93;;;6.20;;
23175;SDS011;19910;42.652;23.332;2022-09-09T02:32:52;9.65;;;6.97;;
23175;SDS011;19910;42.652;23.332;2022-09-09T02:35:23;8.45;;;7.00;;
23175;SDS011;19910;42.652;23.332;2022-09-09T02:37:51;10.18;;;7.38;;
23175;SDS011;19910;42.652;23.332;2022-09-09T02:40:24;12.30;;;7.25;;
23175;SDS011;19910;42.652;23.332;2022-09-09T02:42:51;11.57;;;7.50;;
23175;SDS011;19910;42.652;23.332;2022-09-09T02:45:20;11.27;;;6.93;;
23175;SDS011;19910;42.652;23.332;2022-09-09T02:47:51;10.15;;;7.88;;
23175;SDS011;19910;42.652;23.332;2022-09-09T02:50:28;10.05;;;7.25;;
23175;SDS011;19910;42.652;23.332;2022-09-09T02:53:01;9.63;;;6.97;;
23175;SDS011;19910;42.652;23.332;2022-09-09T02:55:37;13.25;;;7.18;;
23175;SDS011;19910;42.652;23.332;2022-09-09T02:58:08;9.98;;;7.28;;
23175;SDS011;19910;42.652;23.332;2022-09-09T03:00:37;15.80;;;6.40;;
23175;SDS011;19910;42.652;23.332;2022-09-09T03:03:06;10.95;;;7.28;;
23175;SDS011;19910;42.652;23.332;2022-09-09T03:05:35;11.73;;;7.13;;
23175;SDS011;19910;42.652;23.332;2022-09-09T03:08:02;11.02;;;6.90;;
23175;SDS011;19910;42.652;23.332;2022-09-09T03:10:30;11.48;;;6.93;;
23175;SDS011;19910;42.652;23.332;2022-09-09T03:12:57;12.48;;;7.25;;
23175;SDS011;19910;42.652;23.332;2022-09-09T03:15:24;11.57;;;7.05;;
23175;SDS011;19910;42.652;23.332;2022-09-09T03:17:54;11.45;;;7.22;;
23175;SDS011;19910;42.652;23.332;2022-09-09T03:20:22;10.75;;;7.47;;
23175;SDS011;19910;42.652;23.332;2022-09-09T03:22:50;11.63;;;7.90;;
23175;SDS011;19910;42.652;23.332;2022-09-09T03:25:17;10.07;;;6.82;;
23175;SDS011;19910;42.652;23.332;2022-09-09T03:27:43;12.45;;;7.10;;
23175;SDS011;19910;42.652;23.332;2022-09-09T03:30:10;12.07;;;7.45;;
23175;SDS011;19910;42.652;23.332;2022-09-09T03:32:39;10.38;;;7.43;;
23175;SDS011;19910;42.652;23.332;2022-09-09T03:35:06;11.20;;;8.00;;
23175;SDS011;19910;42.652;23.332;2022-09-09T03:37:33;12.48;;;7.93;;
23175;SDS011;19910;42.652;23.332;2022-09-09T03:40:02;11.10;;;8.05;;
23175;SDS011;19910;42.652;23.332;2022-09-09T03:42:31;10.10;;;7.38;;
23175;SDS011;19910;42.652;23.332;2022-09-09T03:44:57;10.48;;;7.20;;
23175;SDS011;19910;42.652;23.332;2022-09-09T03:47:24;11.32;;;7.68;;
23175;SDS011;19910;42.652;23.332;2022-09-09T03:49:52;11.50;;;8.13;;
23175;SDS011;19910;42.652;23.332;2022-09-09T03:52:18;16.90;;;8.88;;
23175;SDS011;19910;42.652;23.332;2022-09-09T03:54:46;13.00;;;9.05;;
23175;SDS011;19910;42.652;23.332;2022-09-09T03:57:15;11.82;;;8.45;;
23175;SDS011;19910;42.652;23.332;2022-09-09T03:59:42;13.40;;;8.32;;
23175;SDS011;19910;42.652;23.332;2022-09-09T04:02:08;12.40;;;8.32;;
23175;SDS011;19910;42.652;23.332;2022-09-09T04:04:36;14.82;;;8.60;;
23175;SDS011;19910;42.652;23.332;2022-09-09T04:07:03;12.52;;;8.18;;
23175;SDS011;19910;42.652;23.332;2022-09-09T04:09:31;13.73;;;8.15;;
23175;SDS011;19910;42.652;23.332;2022-09-09T04:11:57;16.98;;;8.45;;
23175;SDS011;19910;42.652;23.332;2022-09-09T04:14:26;14.77;;;8.27;;
23175;SDS011;19910;42.652;23.332;2022-09-09T04:16:54;15.70;;;8.77;;
23175;SDS011;19910;42.652;23.332;2022-09-09T04:19:23;12.65;;;8.30;;
23175;SDS011;19910;42.652;23.332;2022-09-09T04:21:50;16.75;;;8.52;;
23175;SDS011;19910;42.652;23.332;2022-09-09T04:24:17;13.65;;;7.85;;
23175;SDS011;19910;42.652;23.332;2022-09-09T04:26:44;12.48;;;7.75;;
23175;SDS011;19910;42.652;23.332;2022-09-09T04:29:12;13.43;;;8.43;;
23175;SDS011;19910;42.652;23.332;2022-09-09T04:31:40;12.73;;;8.32;;
23175;SDS011;19910;42.652;23.332;2022-09-09T04:34:07;16.63;;;8.93;;
23175;SDS011;19910;42.652;23.332;2022-09-09T04:36:34;10.50;;;7.45;;
23175;SDS011;19910;42.652;23.332;2022-09-09T04:39:01;13.95;;;7.47;;
23175;SDS011;19910;42.652;23.332;2022-09-09T04:41:28;16.55;;;7.75;;
23175;SDS011;19910;42.652;23.332;2022-09-09T04:43:56;13.32;;;7.40;;
23175;SDS011;19910;42.652;23.332;2022-09-09T04:46:24;9.65;;;7.45;;
23175;SDS011;19910;42.652;23.332;2022-09-09T04:48:52;12.57;;;6.72;;
23175;SDS011;19910;42.652;23.332;2022-09-09T04:51:19;12.50;;;7.90;;
23175;SDS011;19910;42.652;23.332;2022-09-09T04:53:46;13.77;;;10.10;;
23175;SDS011;19910;42.652;23.332;2022-09-09T04:56:15;12.23;;;9.57;;
23175;SDS011;19910;42.652;23.332;2022-09-09T04:58:43;10.65;;;8.40;;
23175;SDS011;19910;42.652;23.332;2022-09-09T05:01:11;13.82;;;8.23;;
23175;SDS011;19910;42.652;23.332;2022-09-09T05:03:38;16.90;;;7.97;;
23175;SDS011;19910;42.652;23.332;2022-09-09T05:06:07;12.70;;;9.05;;
23175;SDS011;19910;42.652;23.332;2022-09-09T05:08:36;13.88;;;8.55;;
23175;SDS011;19910;42.652;23.332;2022-09-09T05:11:03;12.27;;;9.60;;
23175;SDS011;19910;42.652;23.332;2022-09-09T05:13:38;14.90;;;10.18;;
23175;SDS011;19910;42.652;23.332;2022-09-09T05:16:05;15.60;;;10.70;;
23175;SDS011;19910;42.652;23.332;2022-09-09T05:18:32;16.23;;;11.05;;
23175;SDS011;19910;42.652;23.332;2022-09-09T05:20:59;20.20;;;10.50;;
23175;SDS011;19910;42.652;23.332;2022-09-09T05:23:27;11.07;;;9.73;;
23175;SDS011;19910;42.652;23.332;2022-09-09T05:25:55;16.13;;;9.68;;
23175;SDS011;19910;42.652;23.332;2022-09-09T05:28:23;15.32;;;9.82;;
23175;SDS011;19910;42.652;23.332;2022-09-09T05:30:57;13.43;;;9.85;;
23175;SDS011;19910;42.652;23.332;2022-09-09T05:33:25;12.48;;;9.57;;
23175;SDS011;19910;42.652;23.332;2022-09-09T05:35:59;13.52;;;10.00;;
23175;SDS011;19910;42.652;23.332;2022-09-09T05:38:29;11.40;;;8.73;;
23175;SDS011;19910;42.652;23.332;2022-09-09T05:40:57;16.52;;;8.93;;
23175;SDS011;19910;42.652;23.332;2022-09-09T05:43:24;12.15;;;9.05;;
23175;SDS011;19910;42.652;23.332;2022-09-09T05:46:01;12.32;;;8.18;;
23175;SDS011;19910;42.652;23.332;2022-09-09T05:48:30;12.98;;;8.50;;
23175;SDS011;19910;42.652;23.332;2022-09-09T05:50:58;13.55;;;8.43;;
23175;SDS011;19910;42.652;23.332;2022-09-09T05:53:25;8.77;;;7.45;;
23175;SDS011;19910;42.652;23.332;2022-09-09T05:56:01;11.40;;;7.97;;
23175;SDS011;19910;42.652;23.332;2022-09-09T05:58:30;9.98;;;7.63;;
23175;SDS011;19910;42.652;23.332;2022-09-09T06:01:00;10.52;;;7.82;;
23175;SDS011;19910;42.652;23.332;2022-09-09T06:03:28;15.40;;;7.75;;
23175;SDS011;19910;42.652;23.332;2022-09-09T06:05:59;11.57;;;7.25;;
23175;SDS011;19910;42.652;23.332;2022-09-09T06:08:26;9.27;;;6.60;;
23175;SDS011;19910;42.652;23.332;2022-09-09T06:10:53;8.68;;;6.65;;
23175;SDS011;19910;42.652;23.332;2022-09-09T06:13:29;8.02;;;6.70;;
23175;SDS011;19910;42.652;23.332;2022-09-09T06:15:56;8.90;;;6.40;;
23175;SDS011;19910;42.652;23.332;2022-09-09T06:18:23;9.43;;;6.20;;
23175;SDS011;19910;42.652;23.332;2022-09-09T06:20:54;9.40;;;6.65;;
23175;SDS011;19910;42.652;23.332;2022-09-09T06:23:26;9.68;;;6.05;;
23175;SDS011;19910;42.652;23.332;2022-09-09T06:26:00;8.88;;;6.20;;
23175;SDS011;19910;42.652;23.332;2022-09-09T06:28:32;8.52;;;6.18;;
23175;SDS011;19910;42.652;23.332;2022-09-09T06:30:59;7.75;;;6.30;;
23175;SDS011;19910;42.652;23.332;2022-09-09T06:33:26;12.30;;;7.10;;
23175;SDS011;19910;42.652;23.332;2022-09-09T06:35:54;9.07;;;6.60;;
23175;SDS011;19910;42.652;23.332;2022-09-09T06:38:22;11.00;;;6.90;;
23175;SDS011;19910;42.652;23.332;2022-09-09T06:40:52;10.07;;;6.60;;
23175;SDS011;19910;42.652;23.332;2022-09-09T06:43:20;7.60;;;6.47;;
23175;SDS011;19910;42.652;23.332;2022-09-09T06:45:54;8.98;;;7.45;;
23175;SDS011;19910;42.652;23.332;2022-09-09T06:48:21;8.40;;;6.03;;
23175;SDS011;19910;42.652;23.332;2022-09-09T06:50:48;9.23;;;6.70;;
23175;SDS011;19910;42.652;23.332;2022-09-09T06:53:16;10.60;;;6.55;;
23175;SDS011;19910;42.652;23.332;2022-09-09T06:55:44;9.88;;;7.07;;
23175;SDS011;19910;42.652;23.332;2022-09-09T06:58:11;10.57;;;6.68;;
23175;SDS011;19910;42.652;23.332;2022-09-09T07:00:38;9.18;;;6.60;;
23175;SDS011;19910;42.652;23.332;2022-09-09T07:03:06;11.38;;;5.90;;
23175;SDS011;19910;42.652;23.332;2022-09-09T07:05:33;7.95;;;6.32;;
23175;SDS011;19910;42.652;23.332;2022-09-09T07:08:00;9.18;;;6.38;;
23175;SDS011;19910;42.652;23.332;2022-09-09T07:10:27;12.48;;;6.80;;
23175;SDS011;19910;42.652;23.332;2022-09-09T07:12:54;10.88;;;6.43;;
23175;SDS011;19910;42.652;23.332;2022-09-09T07:15:21;8.02;;;6.97;;
23175;SDS011;19910;42.652;23.332;2022-09-09T07:17:48;10.80;;;6.70;;
23175;SDS011;19910;42.652;23.332;2022-09-09T07:20:17;9.13;;;6.47;;
23175;SDS011;19910;42.652;23.332;2022-09-09T07:22:45;17.35;;;6.72;;
23175;SDS011;19910;42.652;23.332;2022-09-09T07:25:11;9.45;;;6.55;;
23175;SDS011;19910;42.652;23.332;2022-09-09T07:27:39;12.85;;;6.95;;
23175;SDS011;19910;42.652;23.332;2022-09-09T07:30:06;10.07;;;7.82;;
23175;SDS011;19910;42.652;23.332;2022-09-09T07:32:34;11.27;;;7.47;;
23175;SDS011;19910;42.652;23.332;2022-09-09T07:35:01;12.20;;;6.95;;
23175;SDS011;19910;42.652;23.332;2022-09-09T07:37:29;10.20;;;7.32;;
23175;SDS011;19910;42.652;23.332;2022-09-09T07:39:56;11.57;;;7.38;;
23175;SDS011;19910;42.652;23.332;2022-09-09T07:42:23;16.05;;;7.93;;
23175;SDS011;19910;42.652;23.332;2022-09-09T07:44:50;8.32;;;7.43;;
23175;SDS011;19910;42.652;23.332;2022-09-09T07:47:20;13.60;;;7.75;;
23175;SDS011;19910;42.652;23.332;2022-09-09T07:49:47;13.20;;;7.30;;
23175;SDS011;19910;42.652;23.332;2022-09-09T07:52:14;9.93;;;7.20;;
23175;SDS011;19910;42.652;23.332;2022-09-09T07:54:43;8.85;;;7.53;;
23175;SDS011;19910;42.652;23.332;2022-09-09T07:57:10;11.75;;;6.90;;
23175;SDS011;19910;42.652;23.332;2022-09-09T07:59:37;9.93;;;6.85;;
23175;SDS011;19910;42.652;23.332;2022-09-09T08:02:04;11.02;;;6.55;;
23175;SDS011;19910;42.652;23.332;2022-09-09T08:04:32;10.80;;;7.43;;
23175;SDS011;19910;42.652;23.332;2022-09-09T08:06:59;13.20;;;6.53;;
23175;SDS011;19910;42.652;23.332;2022-09-09T08:09:28;13.45;;;6.68;;
23175;SDS011;19910;42.652;23.332;2022-09-09T08:11:56;9.70;;;6.35;;
23175;SDS011;19910;42.652;23.332;2022-09-09T08:14:23;8.45;;;6.15;;
23175;SDS011;19910;42.652;23.332;2022-09-09T08:16:50;9.40;;;6.10;;
23175;SDS011;19910;42.652;23.332;2022-09-09T08:19:18;8.10;;;6.32;;
23175;SDS011;19910;42.652;23.332;2022-09-09T08:21:45;11.57;;;5.72;;
23175;SDS011;19910;42.652;23.332;2022-09-09T08:24:14;10.52;;;6.25;;
23175;SDS011;19910;42.652;23.332;2022-09-09T08:26:41;7.03;;;5.85;;
23175;SDS011;19910;42.652;23.332;2022-09-09T08:29:11;9.32;;;5.72;;
23175;SDS011;19910;42.652;23.332;2022-09-09T08:31:39;8.10;;;5.88;;
23175;SDS011;19910;42.652;23.332;2022-09-09T08:34:08;8.98;;;5.43;;
23175;SDS011;19910;42.652;23.332;2022-09-09T08:36:36;7.93;;;5.80;;
23175;SDS011;19910;42.652;23.332;2022-09-09T08:39:06;8.52;;;5.60;;
23175;SDS011;19910;42.652;23.332;2022-09-09T08:41:40;12.20;;;5.68;;
23175;SDS011;19910;42.652;23.332;2022-09-09T08:44:29;6.13;;;5.32;;
23175;SDS011;19910;42.652;23.332;2022-09-09T08:47:07;8.07;;;5.35;;
23175;SDS011;19910;42.652;23.332;2022-09-09T08:49:55;10.98;;;5.88;;
23175;SDS011;19910;42.652;23.332;2022-09-09T08:52:36;8.85;;;5.88;;
23175;SDS011;19910;42.652;23.332;2022-09-09T08:55:12;11.60;;;5.38;;
23175;SDS011;19910;42.652;23.332;2022-09-09T08:57:47;9.73;;;5.68;;
23175;SDS011;19910;42.652;23.332;2022-09-09T09:00:18;9.02;;;5.70;;
23175;SDS011;19910;42.652;23.332;2022-09-09T09:02:46;7.72;;;5.93;;
23175;SDS011;19910;42.652;23.332;2022-09-09T09:05:22;8.48;;;5.18;;
23175;SDS011;19910;42.652;23.332;2022-09-09T09:07:58;8.18;;;5.38;;
23175;SDS011;19910;42.652;23.332;2022-09-09T09:10:33;7.78;;;5.50;;
23175;SDS011;19910;42.652;23.332;2022-09-09T09:13:13;8.30;;;5.55;;
23175;SDS011;19910;42.652;23.332;2022-09-09T09:15:43;8.15;;;5.43;;
23175;SDS011;19910;42.652;23.332;2022-09-09T09:18:13;8.93;;;5.47;;
23175;SDS011;19910;42.652;23.332;2022-09-09T09:20:43;9.20;;;5.70;;
23175;SDS011;19910;42.652;23.332;2022-09-09T09:23:19;9.13;;;5.57;;
23175;SDS011;19910;42.652;23.332;2022-09-09T09:25:49;6.80;;;5.35;;
23175;SDS011;19910;42.652;23.332;2022-09-09T09:28:18;8.40;;;5.28;;
23175;SDS011;19910;42.652;23.332;2022-09-09T09:30:51;11.45;;;6.03;;
23175;SDS011;19910;42.652;23.332;2022-09-09T09:33:23;7.65;;;5.22;;
23175;SDS011;19910;42.652;23.332;2022-09-09T09:35:54;7.38;;;5.35;;
23175;SDS011;19910;42.652;23.332;2022-09-09T09:38:22;5.72;;;5.10;;
23175;SDS011;19910;42.652;23.332;2022-09-09T09:40:50;9.50;;;5.80;;
23175;SDS011;19910;42.652;23.332;2022-09-09T09:43:20;6.55;;;5.05;;
23175;SDS011;19910;42.652;23.332;2022-09-09T09:45:51;9.45;;;5.55;;
23175;SDS011;19910;42.652;23.332;2022-09-09T09:48:18;8.98;;;5.32;;
23175;SDS011;19910;42.652;23.332;2022-09-09T09:50:49;6.95;;;5.88;;
23175;SDS011;19910;42.652;23.332;2022-09-09T09:53:20;9.57;;;5.68;;
23175;SDS011;19910;42.652;23.332;2022-09-09T09:55:52;11.75;;;5.22;;
23175;SDS011;19910;42.652;23.332;2022-09-09T09:58:21;6.30;;;5.22;;
23175;SDS011;19910;42.652;23.332;2022-09-09T10:00:51;7.80;;;5.55;;
23175;SDS011;19910;42.652;23.332;2022-09-09T10:03:21;13.77;;;9.43;;
23175;SDS011;19910;42.652;23.332;2022-09-09T10:05:49;9.68;;;5.53;;
23175;SDS011;19910;42.652;23.332;2022-09-09T10:08:17;8.40;;;5.80;;
23175;SDS011;19910;42.652;23.332;2022-09-09T10:10:52;7.50;;;5.00;;
23175;SDS011;19910;42.652;23.332;2022-09-09T10:13:27;11.77;;;9.48;;
23175;SDS011;19910;42.652;23.332;2022-09-09T10:16:08;9.38;;;6.50;;
23175;SDS011;19910;42.652;23.332;2022-09-09T10:18:49;10.68;;;6.95;;
23175;SDS011;19910;42.652;23.332;2022-09-09T10:21:28;8.68;;;5.80;;
23175;SDS011;19910;42.652;23.332;2022-09-09T10:24:14;10.30;;;5.07;;
23175;SDS011;19910;42.652;23.332;2022-09-09T10:27:09;8.20;;;5.45;;
23175;SDS011;19910;42.652;23.332;2022-09-09T10:29:51;9.77;;;5.88;;
23175;SDS011;19910;42.652;23.332;2022-09-09T10:32:38;9.20;;;5.25;;
23175;SDS011;19910;42.652;23.332;2022-09-09T10:35:12;12.02;;;5.70;;
23175;SDS011;19910;42.652;23.332;2022-09-09T10:37:53;9.05;;;5.85;;
23175;SDS011;19910;42.652;23.332;2022-09-09T10:40:44;9.18;;;5.75;;
23175;SDS011;19910;42.652;23.332;2022-09-09T10:43:27;10.90;;;5.60;;
23175;SDS011;19910;42.652;23.332;2022-09-09T10:46:06;6.90;;;5.25;;
23175;SDS011;19910;42.652;23.332;2022-09-09T10:48:44;9.73;;;5.50;;
23175;SDS011;19910;42.652;23.332;2022-09-09T10:51:23;7.65;;;5.60;;
23175;SDS011;19910;42.652;23.332;2022-09-09T10:54:09;9.35;;;6.00;;
23175;SDS011;19910;42.652;23.332;2022-09-09T10:56:51;10.07;;;6.40;;
23175;SDS011;19910;42.652;23.332;2022-09-09T10:59:23;8.27;;;6.00;;
23175;SDS011;19910;42.652;23.332;2022-09-09T11:01:53;10.15;;;6.35;;
23175;SDS011;19910;42.652;23.332;2022-09-09T11:04:27;8.73;;;6.03;;
23175;SDS011;19910;42.652;23.332;2022-09-09T11:06:59;11.10;;;6.55;;
23175;SDS011;19910;42.652;23.332;2022-09-09T11:09:33;8.43;;;6.18;;
23175;SDS011;19910;42.652;23.332;2022-09-09T11:12:09;9.25;;;6.57;;
23175;SDS011;19910;42.652;23.332;2022-09-09T11:14:42;7.32;;;6.28;;
23175;SDS011;19910;42.652;23.332;2022-09-09T11:17:12;11.68;;;6.63;;
23175;SDS011;19910;42.652;23.332;2022-09-09T11:19:44;10.95;;;7.07;;
23175;SDS011;19910;42.652;23.332;2022-09-09T11:22:16;11.10;;;6.72;;
23175;SDS011;19910;42.652;23.332;2022-09-09T11:24:53;12.15;;;6.43;;
23175;SDS011;19910;42.652;23.332;2022-09-09T11:27:23;10.70;;;6.65;;
23175;SDS011;19910;42.652;23.332;2022-09-09T11:30:05;11.50;;;7.00;;
23175;SDS011;19910;42.652;23.332;2022-09-09T11:32:55;11.35;;;7.53;;
23175;SDS011;19910;42.652;23.332;2022-09-09T11:36:00;12.13;;;7.55;;
23175;SDS011;19910;42.652;23.332;2022-09-09T11:38:40;10.20;;;7.25;;
23175;SDS011;19910;42.652;23.332;2022-09-09T11:41:12;10.27;;;7.13;;
23175;SDS011;19910;42.652;23.332;2022-09-09T11:43:41;10.30;;;7.30;;
23175;SDS011;19910;42.652;23.332;2022-09-09T11:46:10;11.18;;;7.25;;
23175;SDS011;19910;42.652;23.332;2022-09-09T11:48:40;9.88;;;6.95;;
23175;SDS011;19910;42.652;23.332;2022-09-09T11:51:12;14.65;;;8.35;;
23175;SDS011;19910;42.652;23.332;2022-09-09T11:53:52;13.52;;;7.30;;
23175;SDS011;19910;42.652;23.332;2022-09-09T11:56:29;10.93;;;7.70;;
23175;SDS011;19910;42.652;23.332;2022-09-09T11:58:59;9.55;;;7.03;;
23175;SDS011;19910;42.652;23.332;2022-09-09T12:01:35;10.85;;;7.68;;
23175;SDS011;19910;42.652;23.332;2022-09-09T12:04:27;9.32;;;7.63;;
23175;SDS011;19910;42.652;23.332;2022-09-09T12:06:59;15.02;;;7.72;;
23175;SDS011;19910;42.652;23.332;2022-09-09T12:09:30;10.85;;;7.22;;
23175;SDS011;19910;42.652;23.332;2022-09-09T12:12:16;11.15;;;7.60;;
23175;SDS011;19910;42.652;23.332;2022-09-09T12:14:55;12.07;;;7.63;;
23175;SDS011;19910;42.652;23.332;2022-09-09T12:17:25;10.20;;;7.40;;
23175;SDS011;19910;42.652;23.332;2022-09-09T12:20:10;14.02;;;7.40;;
23175;SDS011;19910;42.652;23.332;2022-09-09T12:22:43;11.93;;;7.78;;
23175;SDS011;19910;42.652;23.332;2022-09-09T12:25:23;8.60;;;7.70;;
23175;SDS011;19910;42.652;23.332;2022-09-09T12:28:01;11.70;;;7.13;;
23175;SDS011;19910;42.652;23.332;2022-09-09T12:30:34;10.98;;;7.60;;
23175;SDS011;19910;42.652;23.332;2022-09-09T12:33:09;10.60;;;7.68;;
23175;SDS011;19910;42.652;23.332;2022-09-09T12:35:39;13.40;;;7.40;;
23175;SDS011;19910;42.652;23.332;2022-09-09T12:38:10;15.77;;;7.85;;
23175;SDS011;19910;42.652;23.332;2022-09-09T12:40:41;11.48;;;8.15;;
23175;SDS011;19910;42.652;23.332;2022-09-09T12:43:16;16.90;;;8.45;;
23175;SDS011;19910;42.652;23.332;2022-09-09T12:45:44;16.02;;;8.13;;
23175;SDS011;19910;42.652;23.332;2022-09-09T12:48:11;9.48;;;7.32;;
23175;SDS011;19910;42.652;23.332;2022-09-09T12:50:43;9.10;;;7.10;;
23175;SDS011;19910;42.652;23.332;2022-09-09T12:53:15;16.73;;;7.65;;
23175;SDS011;19910;42.652;23.332;2022-09-09T12:55:49;9.70;;;7.07;;
23175;SDS011;19910;42.652;23.332;2022-09-09T12:58:18;10.00;;;7.60;;
23175;SDS011;19910;42.652;23.332;2022-09-09T13:00:49;12.98;;;7.50;;
23175;SDS011;19910;42.652;23.332;2022-09-09T13:03:18;11.57;;;7.20;;
23175;SDS011;19910;42.652;23.332;2022-09-09T13:05:46;12.43;;;7.32;;
23175;SDS011;19910;42.652;23.332;2022-09-09T13:08:16;12.02;;;7.57;;
23175;SDS011;19910;42.652;23.332;2022-09-09T13:10:46;14.27;;;7.97;;
23175;SDS011;19910;42.652;23.332;2022-09-09T13:13:16;17.17;;;7.60;;
23175;SDS011;19910;42.652;23.332;2022-09-09T13:15:49;13.00;;;7.70;;
23175;SDS011;19910;42.652;23.332;2022-09-09T13:18:19;12.07;;;7.18;;
23175;SDS011;19910;42.652;23.332;2022-09-09T13:20:49;21.95;;;8.32;;
23175;SDS011;19910;42.652;23.332;2022-09-09T13:23:19;16.00;;;7.60;;
23175;SDS011;19910;42.652;23.332;2022-09-09T13:25:53;13.18;;;7.03;;
23175;SDS011;19910;42.652;23.332;2022-09-09T13:28:22;14.73;;;7.57;;
23175;SDS011;19910;42.652;23.332;2022-09-09T13:30:57;10.88;;;7.60;;
23175;SDS011;19910;42.652;23.332;2022-09-09T13:33:31;13.50;;;7.68;;
23175;SDS011;19910;42.652;23.332;2022-09-09T13:36:00;13.43;;;7.85;;
23175;SDS011;19910;42.652;23.332;2022-09-09T13:38:32;17.02;;;9.00;;
23175;SDS011;19910;42.652;23.332;2022-09-09T13:41:02;13.77;;;8.07;;
23175;SDS011;19910;42.652;23.332;2022-09-09T13:43:31;14.07;;;7.80;;
23175;SDS011;19910;42.652;23.332;2022-09-09T13:46:01;13.90;;;7.80;;
23175;SDS011;19910;42.652;23.332;2022-09-09T13:48:28;11.40;;;8.10;;
23175;SDS011;19910;42.652;23.332;2022-09-09T13:50:58;14.48;;;8.60;;
23175;SDS011;19910;42.652;23.332;2022-09-09T13:53:31;12.23;;;7.45;;
23175;SDS011;19910;42.652;23.332;2022-09-09T13:55:58;16.75;;;8.35;;
23175;SDS011;19910;42.652;23.332;2022-09-09T13:58:26;12.73;;;7.38;;
23175;SDS011;19910;42.652;23.332;2022-09-09T14:00:53;14.50;;;7.70;;
23175;SDS011;19910;42.652;23.332;2022-09-09T14:03:20;19.05;;;8.43;;
23175;SDS011;19910;42.652;23.332;2022-09-09T14:05:47;14.10;;;7.45;;
23175;SDS011;19910;42.652;23.332;2022-09-09T14:08:16;11.32;;;7.97;;
23175;SDS011;19910;42.652;23.332;2022-09-09T14:10:49;12.25;;;7.75;;
23175;SDS011;19910;42.652;23.332;2022-09-09T14:13:15;11.90;;;7.90;;
23175;SDS011;19910;42.652;23.332;2022-09-09T14:15:42;13.43;;;7.85;;
23175;SDS011;19910;42.652;23.332;2022-09-09T14:18:10;12.93;;;7.30;;
23175;SDS011;19910;42.652;23.332;2022-09-09T14:20:39;12.52;;;7.25;;
23175;SDS011;19910;42.652;23.332;2022-09-09T14:23:07;10.18;;;7.20;;
23175;SDS011;19910;42.652;23.332;2022-09-09T14:25:39;16.25;;;8.15;;
23175;SDS011;19910;42.652;23.332;2022-09-09T14:28:08;13.73;;;7.90;;
23175;SDS011;19910;42.652;23.332;2022-09-09T14:30:37;14.23;;;7.97;;
23175;SDS011;19910;42.652;23.332;2022-09-09T14:33:05;12.10;;;7.57;;
23175;SDS011;19910;42.652;23.332;2022-09-09T14:35:32;16.88;;;8.70;;
23175;SDS011;19910;42.652;23.332;2022-09-09T14:37:59;13.95;;;7.28;;
23175;SDS011;19910;42.652;23.332;2022-09-09T14:40:27;15.48;;;7.68;;
23175;SDS011;19910;42.652;23.332;2022-09-09T14:42:55;11.00;;;6.60;;
23175;SDS011;19910;42.652;23.332;2022-09-09T14:45:23;11.02;;;7.32;;
23175;SDS011;19910;42.652;23.332;2022-09-09T14:47:50;13.38;;;7.30;;
23175;SDS011;19910;42.652;23.332;2022-09-09T14:50:17;11.02;;;7.47;;